Lexington, MA

2:48 PM EST on December 05, 2016 (GMT -0500)
Lexington Hi | | Change Station

Elev 226 ft 42.44 °N, 71.23 °W | Updated 6 minutes ago

Overcast
Overcast
34.3 °F
Feels Like 34 °F
N
1.6
Wind Variable Wind from South
Gusts 3.1 mph

Today
High -- | Low -- °F
--% Chance of Precip.
Yesterday
High -- | Low -- °F
Precip. -- in
Pressure 29.90 in
Visibility 1.5 miles
Clouds Overcast 500 ft
Windchill 34 °F
Dew Point 34 °F
Humidity 98%
Rainfall 0.00 in
Snow Depth Not available.
6:59 AM 4:12 PM
Waxing Crescent, 34% visible
SPECI KBED 051910Z 00000KT 1 1/2SM BR OVC005 01/M01 A2990 RMK AO2 T00061011
Pressure 29.90 in
Visibility 1.5 miles
Clouds Overcast 500 ft
Windchill 34 °F
Dew Point 34 °F
Humidity 98%
Rainfall 0.00 in
Snow Depth Not available.
6:59 AM 4:12 PM
Waxing Crescent, 34% visible
SPECI KBED 051910Z 00000KT 1 1/2SM BR OVC005 01/M01 A2990 RMK AO2 T00061011

10-Day Weather Forecast

Almanac

Astronomy

Dec. 05, 2016 Rise Set
Actual Time
Civil Twilight
Nautical Twilight
Astronomical Twilight
Moon
Length of Visible Light
Length of Day
Tomorrow will be .
, % of the Moon is Illuminated

Today's Extremes

State Highs State Lows

Community

WunderPhotos

Upload Photos

1,955,852 photos uploaded!

WunderBlog® & News

Nearby

Air Quality

  Air Quality AQ Index Pollutant
Not available.

Snow Depth

Station Depth Elevation

Earthquake Activity

City Distance Mag. Time & Date
Minimum magnitude displayed is 2.5.

Coastal Water Temperatures

Place Temperature

Stations

Nearby Weather Stations

Station Location Temp. Windchill Dew Point Humidity Wind Precip. Elev Updated Type
                   

Watches & Warnings

There are currently no watches in effect.